createdAt,value
2022-10-23T00:00:39.014Z,46.30
2022-10-23T00:05:59.058Z,46.30
2022-10-23T00:11:19.378Z,46.30
2022-10-23T00:16:39.511Z,46.30
2022-10-23T00:21:59.742Z,46.30
2022-10-23T00:27:19.894Z,46.30
2022-10-23T00:32:39.952Z,46.30
2022-10-23T00:37:59.911Z,46.30
2022-10-23T00:43:20.047Z,46.20
2022-10-23T00:48:40.449Z,46.30
2022-10-23T00:54:23.047Z,46.30
2022-10-23T00:59:40.972Z,46.30
2022-10-23T01:05:01.155Z,46.30
2022-10-23T01:10:21.478Z,46.20
2022-10-23T01:15:41.521Z,46.20
2022-10-23T01:21:01.682Z,46.30
2022-10-23T01:26:21.734Z,46.20
2022-10-23T01:31:41.990Z,46.20
2022-10-23T01:37:02.155Z,46.20
2022-10-23T01:42:22.290Z,46.20
2022-10-23T01:47:42.618Z,46.20
2022-10-23T01:53:03.049Z,46.20
2022-10-23T01:58:23.220Z,46.20
2022-10-23T02:03:43.284Z,46.20
2022-10-23T02:09:03.384Z,46.20
2022-10-23T02:14:23.559Z,46.20
2022-10-23T02:19:43.612Z,46.20
2022-10-23T02:25:03.712Z,46.20
2022-10-23T02:30:23.840Z,46.20
2022-10-23T02:35:44.110Z,46.20
2022-10-23T02:41:04.292Z,46.20
2022-10-23T02:46:24.476Z,46.20
2022-10-23T02:51:44.571Z,46.30
2022-10-23T02:57:04.600Z,46.20
2022-10-23T03:02:25.906Z,46.20
2022-10-23T03:07:46.501Z,46.20
2022-10-23T03:13:06.530Z,46.20
2022-10-23T03:18:26.610Z,46.20
2022-10-23T03:23:46.706Z,46.20
2022-10-23T03:29:06.856Z,46.20
2022-10-23T03:34:26.896Z,46.20
2022-10-23T03:39:46.987Z,46.20
2022-10-23T03:45:07.086Z,46.20
2022-10-23T03:50:27.083Z,46.20
2022-10-23T03:55:47.247Z,46.20
2022-10-23T04:01:07.298Z,46.20
2022-10-23T04:06:27.341Z,46.20
2022-10-23T04:11:47.321Z,46.20
2022-10-23T04:17:07.550Z,46.20
2022-10-23T04:22:28.532Z,46.20
2022-10-23T04:27:48.816Z,46.20
2022-10-23T04:33:08.850Z,46.20
2022-10-23T04:38:28.943Z,46.20
2022-10-23T04:43:49.105Z,46.20
2022-10-23T04:49:09.152Z,46.20
2022-10-23T04:54:29.251Z,46.10
2022-10-23T04:59:49.335Z,46.10
2022-10-23T05:05:09.488Z,46.10
2022-10-23T05:10:29.652Z,46.10
2022-10-23T05:15:49.702Z,46.10
2022-10-23T05:21:09.907Z,46.30
2022-10-23T05:26:30.040Z,46.10
2022-10-23T05:31:50.239Z,46.10
2022-10-23T05:37:10.191Z,46.10
2022-10-23T05:42:30.398Z,46.10
2022-10-23T05:47:50.568Z,46.10
2022-10-23T05:53:10.624Z,46.10
2022-10-23T05:58:30.730Z,46.10
2022-10-23T06:03:50.893Z,46.10
2022-10-23T06:09:10.900Z,46.10
2022-10-23T06:14:31.098Z,46.10
2022-10-23T06:19:51.210Z,46.10
2022-10-23T06:25:11.461Z,46.10
2022-10-23T06:30:31.617Z,46.10
2022-10-23T06:35:52.564Z,46.10
2022-10-23T06:41:12.622Z,46.10
2022-10-23T06:46:32.802Z,46.10
2022-10-23T06:51:52.820Z,46.10
2022-10-23T06:57:13.042Z,46.10
2022-10-23T07:02:33.120Z,46.10
2022-10-23T07:07:53.371Z,46.10
2022-10-23T07:13:13.460Z,46.10
2022-10-23T07:23:54.914Z,46.10
2022-10-23T07:29:15.012Z,46.10
2022-10-23T07:34:35.167Z,46.10
2022-10-23T07:39:55.378Z,46.10
2022-10-23T07:45:15.508Z,46.10
2022-10-23T07:50:35.805Z,46.10
2022-10-23T07:55:55.851Z,46.10
2022-10-23T08:01:16.132Z,46.10
2022-10-23T08:06:36.248Z,46.10
2022-10-23T08:11:56.346Z,46.10
2022-10-23T08:17:16.429Z,46.20
2022-10-23T08:22:36.620Z,46.60
2022-10-23T08:27:56.783Z,46.50
2022-10-23T08:33:16.950Z,46.30
2022-10-23T08:38:37.246Z,46.40
2022-10-23T08:43:57.473Z,46.50
2022-10-23T08:49:17.577Z,46.90
2022-10-23T08:54:37.755Z,46.90
2022-10-23T08:59:57.931Z,46.80
2022-10-23T09:05:18.276Z,46.80
2022-10-23T09:10:38.513Z,47.00
2022-10-23T09:15:58.615Z,47.00
2022-10-23T09:21:18.678Z,46.90
2022-10-23T09:26:38.862Z,47.20
2022-10-23T09:31:59.105Z,47.20
2022-10-23T09:37:20.212Z,46.80
2022-10-23T09:42:41.337Z,46.80
2022-10-23T09:48:01.564Z,46.70
2022-10-23T09:53:21.696Z,47.30
2022-10-23T09:58:42.011Z,46.70
2022-10-23T10:04:02.192Z,46.70
2022-10-23T10:09:22.557Z,46.70
2022-10-23T10:14:42.434Z,46.70
2022-10-23T10:20:05.395Z,46.60
2022-10-23T10:25:27.219Z,46.60
2022-10-23T10:30:47.561Z,46.60
2022-10-23T10:36:07.586Z,46.60
2022-10-23T10:41:27.740Z,46.70
2022-10-23T10:46:47.767Z,46.60
2022-10-23T10:52:08.730Z,46.70
2022-10-23T10:57:28.734Z,46.70
2022-10-23T11:02:48.893Z,46.70
2022-10-23T11:08:09.046Z,46.80
2022-10-23T11:13:29.309Z,46.80
2022-10-23T11:18:49.261Z,46.80
2022-10-23T11:29:30.522Z,46.90
2022-10-23T11:34:50.595Z,46.80
2022-10-23T11:40:10.833Z,46.90
2022-10-23T11:45:31.095Z,46.80
2022-10-23T11:50:51.232Z,46.70
2022-10-23T11:56:11.380Z,46.60
2022-10-23T12:01:31.505Z,46.60
2022-10-23T12:06:51.660Z,46.60
2022-10-23T12:12:11.708Z,46.40
2022-10-23T12:17:31.880Z,46.40
2022-10-23T12:22:51.914Z,46.30
2022-10-23T12:28:12.186Z,46.30
2022-10-23T12:33:32.259Z,46.30
2022-10-23T12:38:52.431Z,46.30
2022-10-23T12:44:12.515Z,46.30
2022-10-23T12:49:32.639Z,46.30
2022-10-23T12:54:52.723Z,46.30
2022-10-23T13:00:13.052Z,46.30
2022-10-23T13:05:33.110Z,46.30
2022-10-23T13:10:53.376Z,46.30
2022-10-23T13:16:13.537Z,46.20
2022-10-23T13:21:33.783Z,46.20
2022-10-23T13:26:53.851Z,46.20
2022-10-23T13:32:13.992Z,46.20
2022-10-23T13:37:34.039Z,46.30
2022-10-23T13:42:54.110Z,46.30
2022-10-23T13:48:14.345Z,46.20
2022-10-23T13:53:34.567Z,46.10
2022-10-23T13:58:54.767Z,46.20
2022-10-23T14:04:15.058Z,46.30
2022-10-23T14:09:35.325Z,46.10
2022-10-23T14:14:55.441Z,46.20
2022-10-23T14:20:17.391Z,46.10
2022-10-23T14:25:38.924Z,46.20
2022-10-23T14:30:58.960Z,46.10
2022-10-23T14:41:44.494Z,46.10
2022-10-23T14:47:04.716Z,46.10
2022-10-23T14:52:24.785Z,46.70
2022-10-23T14:57:45.288Z,46.20
2022-10-23T15:03:05.735Z,46.20
2022-10-23T15:08:25.928Z,46.20
2022-10-23T15:13:45.979Z,46.20
2022-10-23T15:19:06.139Z,46.20
2022-10-23T15:24:26.278Z,46.20
2022-10-23T15:29:46.392Z,46.20
2022-10-23T15:35:06.458Z,46.20
2022-10-23T15:40:26.479Z,46.20
2022-10-23T15:45:46.534Z,46.20
2022-10-23T15:51:06.707Z,46.20
2022-10-23T15:56:26.848Z,46.20
2022-10-23T16:01:47.168Z,46.30
2022-10-23T16:07:07.087Z,46.30
2022-10-23T16:12:27.274Z,46.30
2022-10-23T16:17:47.441Z,46.30
2022-10-23T16:23:07.548Z,46.30
2022-10-23T16:28:27.636Z,46.30
2022-10-23T16:33:47.846Z,46.40
2022-10-23T16:39:07.898Z,46.40
2022-10-23T16:44:28.139Z,46.50
2022-10-23T16:49:48.144Z,46.50
2022-10-23T16:55:08.411Z,46.60
2022-10-23T17:00:28.417Z,46.70
2022-10-23T17:05:48.587Z,46.70
2022-10-23T17:11:08.672Z,46.80
2022-10-23T17:16:28.820Z,46.80
2022-10-23T17:21:48.870Z,46.80
2022-10-23T17:27:09.049Z,46.90
2022-10-23T17:32:29.074Z,47.00
2022-10-23T17:37:49.193Z,46.90
2022-10-23T17:43:09.333Z,47.00
2022-10-23T17:48:29.540Z,47.00
2022-10-23T17:53:49.586Z,47.20
2022-10-23T17:59:09.836Z,47.10
2022-10-23T18:04:29.978Z,47.10
2022-10-23T18:09:50.280Z,47.20
2022-10-23T18:15:10.397Z,47.10
2022-10-23T18:20:30.884Z,47.20
2022-10-23T18:25:51.079Z,47.20
2022-10-23T18:31:11.342Z,47.30
2022-10-23T18:36:31.339Z,47.20
2022-10-23T18:41:51.552Z,47.30
2022-10-23T18:47:11.638Z,47.20
2022-10-23T18:52:31.793Z,47.20
2022-10-23T18:57:51.888Z,47.20
2022-10-23T19:03:12.065Z,47.20
2022-10-23T19:08:32.165Z,47.40
2022-10-23T19:13:52.235Z,47.20
2022-10-23T19:19:12.345Z,47.20
2022-10-23T19:24:32.514Z,47.20
2022-10-23T19:29:52.710Z,47.30
2022-10-23T19:35:13.003Z,47.20
2022-10-23T19:40:33.151Z,47.30
2022-10-23T19:45:53.188Z,47.20
2022-10-23T19:51:13.464Z,47.40
2022-10-23T19:56:33.516Z,47.40
2022-10-23T20:01:53.612Z,47.40
2022-10-23T20:07:13.732Z,47.40
2022-10-23T20:12:33.903Z,47.40
2022-10-23T20:17:53.979Z,47.40
2022-10-23T20:23:14.109Z,47.30
2022-10-23T20:28:34.211Z,47.30
2022-10-23T20:33:54.372Z,47.40
2022-10-23T20:39:14.399Z,47.40
2022-10-23T20:44:34.594Z,47.30
2022-10-23T20:49:54.647Z,47.30
2022-10-23T20:55:14.868Z,47.20
2022-10-23T21:00:34.993Z,47.30
2022-10-23T21:05:55.059Z,47.30
2022-10-23T21:11:15.106Z,47.30
2022-10-23T21:16:35.205Z,47.40
2022-10-23T21:21:55.282Z,47.40
2022-10-23T21:27:15.346Z,47.40
2022-10-23T21:32:35.384Z,47.20
2022-10-23T21:37:55.623Z,47.50
2022-10-23T21:43:15.955Z,47.40
2022-10-23T21:48:36.028Z,47.40
2022-10-23T21:53:56.075Z,47.50
2022-10-23T21:59:16.195Z,47.40
2022-10-23T22:04:36.319Z,47.40
2022-10-23T22:09:56.520Z,47.50
2022-10-23T22:15:16.698Z,47.40
2022-10-23T22:20:37.003Z,47.60
2022-10-23T22:25:57.162Z,47.50
2022-10-23T22:31:17.289Z,47.50
2022-10-23T22:36:37.264Z,47.50
2022-10-23T22:41:57.458Z,47.50
2022-10-23T22:47:17.700Z,47.50
2022-10-23T22:52:37.981Z,47.50
2022-10-23T22:57:58.085Z,47.40
2022-10-23T23:03:18.423Z,47.40
2022-10-23T23:08:38.550Z,47.50
2022-10-23T23:13:58.826Z,47.40
2022-10-23T23:19:18.916Z,47.50
2022-10-23T23:24:39.215Z,47.50
2022-10-23T23:29:59.310Z,47.50
2022-10-23T23:35:19.556Z,47.40
2022-10-23T23:40:39.659Z,47.40
2022-10-23T23:45:59.804Z,47.40
2022-10-23T23:51:20.006Z,47.40
2022-10-23T23:56:40.182Z,47.50
